createdAt,value
2023-01-21T00:04:38.467Z,5.20
2023-01-21T00:09:37.026Z,5.20
2023-01-21T00:14:35.566Z,5.20
2023-01-21T00:19:35.496Z,5.60
2023-01-21T00:24:34.050Z,5.30
2023-01-21T00:29:32.599Z,5.30
2023-01-21T00:34:31.144Z,5.20
2023-01-21T00:39:31.049Z,5.30
2023-01-21T00:44:29.595Z,5.30
2023-01-21T00:49:28.144Z,5.30
2023-01-21T00:54:26.798Z,5.30
2023-01-21T00:59:27.633Z,5.30
2023-01-21T01:04:26.086Z,5.40
2023-01-21T01:09:24.622Z,5.70
2023-01-21T01:14:23.368Z,5.30
2023-01-21T01:19:23.282Z,5.40
2023-01-21T01:24:21.850Z,5.30
2023-01-21T01:29:20.582Z,5.30
2023-01-21T01:34:18.816Z,5.30
2023-01-21T01:39:18.676Z,5.40
2023-01-21T01:44:56.311Z,5.50
2023-01-21T01:49:55.017Z,5.40
2023-01-21T01:54:58.824Z,5.40
2023-01-21T01:59:58.427Z,5.50
2023-01-21T02:05:00.134Z,5.50
2023-01-21T02:10:00.735Z,5.40
2023-01-21T02:14:59.357Z,5.80
2023-01-21T02:20:24.019Z,5.60
2023-01-21T02:25:52.246Z,5.70
2023-01-21T02:31:29.973Z,5.40
2023-01-21T02:37:18.981Z,5.40
2023-01-21T02:42:26.375Z,5.30
2023-01-21T02:47:30.522Z,5.70
2023-01-21T02:52:30.245Z,5.30
2023-01-21T02:57:40.224Z,5.40
2023-01-21T03:03:02.171Z,5.40
2023-01-21T03:08:08.026Z,5.50
2023-01-21T03:13:14.347Z,5.50
2023-01-21T03:18:19.968Z,5.50
2023-01-21T03:23:21.177Z,5.80
2023-01-21T03:28:25.119Z,5.70
2023-01-21T03:33:24.415Z,5.60
2023-01-21T03:38:29.889Z,5.70
2023-01-21T03:43:29.851Z,5.70
2023-01-21T03:48:34.384Z,5.70
2023-01-21T03:53:32.648Z,5.40
2023-01-21T03:58:32.633Z,5.40
2023-01-21T04:03:31.112Z,5.60
2023-01-21T04:08:29.909Z,5.50
2023-01-21T04:13:28.974Z,5.20
2023-01-21T04:18:28.803Z,5.50
2023-01-21T04:23:27.438Z,5.50
2023-01-21T04:28:25.595Z,5.20
2023-01-21T04:33:24.489Z,5.30
2023-01-21T04:38:24.359Z,5.50
2023-01-21T04:43:22.860Z,5.10
2023-01-21T04:48:21.305Z,5.10
2023-01-21T04:53:19.824Z,5.10
2023-01-21T04:58:19.677Z,5.00
2023-01-21T05:03:18.339Z,4.80
2023-01-21T05:08:16.818Z,4.60
2023-01-21T05:13:15.287Z,4.40
2023-01-21T05:18:15.280Z,4.50
2023-01-21T05:23:13.801Z,4.60
2023-01-21T05:28:12.546Z,4.80
2023-01-21T05:33:10.681Z,4.50
2023-01-21T05:38:10.840Z,4.40
2023-01-21T05:43:09.296Z,4.50
2023-01-21T05:48:08.116Z,4.70
2023-01-21T05:53:06.665Z,4.90
2023-01-21T05:58:06.830Z,4.80
2023-01-21T06:03:05.843Z,4.70
2023-01-21T06:08:04.450Z,4.70
2023-01-21T06:13:03.053Z,4.70
2023-01-21T06:18:03.134Z,4.80
2023-01-21T06:23:03.262Z,5.20
2023-01-21T06:28:02.157Z,5.10
2023-01-21T06:33:01.170Z,5.10
2023-01-21T06:38:01.023Z,5.00
2023-01-21T06:42:59.639Z,5.10
2023-01-21T06:47:57.805Z,5.20
2023-01-21T06:52:56.840Z,5.20
2023-01-21T06:57:56.715Z,5.20
2023-01-21T07:02:58.028Z,5.20
2023-01-21T07:07:56.664Z,4.80
2023-01-21T07:12:57.036Z,5.20
2023-01-21T07:17:55.604Z,5.00
2023-01-21T07:22:54.079Z,5.10
2023-01-21T07:27:52.973Z,5.20
2023-01-21T07:32:52.983Z,5.40
2023-01-21T07:37:51.532Z,5.40
2023-01-21T07:42:53.442Z,5.20
2023-01-21T07:47:53.601Z,5.00
2023-01-21T07:52:54.566Z,5.10
2023-01-21T07:57:53.447Z,5.50
2023-01-21T08:02:54.031Z,5.30
2023-01-21T08:07:53.475Z,5.10
2023-01-21T08:12:52.795Z,5.50
2023-01-21T08:17:51.317Z,5.50
2023-01-21T08:22:51.190Z,5.10
2023-01-21T08:27:49.933Z,5.10
2023-01-21T08:32:48.144Z,5.30
2023-01-21T08:37:46.697Z,5.50
2023-01-21T08:42:46.556Z,5.20
2023-01-21T08:47:45.080Z,5.40
2023-01-21T08:52:43.586Z,5.20
2023-01-21T08:57:42.137Z,5.60
2023-01-21T09:02:42.186Z,5.30
2023-01-21T09:07:40.746Z,5.30
2023-01-21T09:12:41.177Z,5.30
2023-01-21T09:17:39.449Z,5.30
2023-01-21T09:22:39.334Z,5.50
2023-01-21T09:27:37.670Z,5.30
2023-01-21T09:32:35.855Z,5.40
2023-01-21T09:37:35.150Z,5.40
2023-01-21T09:42:35.429Z,5.30
2023-01-21T09:47:38.387Z,5.40
2023-01-21T09:52:41.789Z,5.50
2023-01-21T09:57:56.372Z,5.40
2023-01-21T10:03:04.783Z,5.50
2023-01-21T10:08:13.802Z,5.30
2023-01-21T10:13:32.145Z,5.50
2023-01-21T10:18:34.026Z,5.50
2023-01-21T10:23:36.057Z,5.60
2023-01-21T10:28:39.729Z,5.60
2023-01-21T10:33:37.912Z,5.70
2023-01-21T10:38:41.693Z,5.80
2023-01-21T10:43:47.456Z,5.90
2023-01-21T10:48:55.339Z,5.90
2023-01-21T10:53:57.799Z,6.30
2023-01-21T10:59:18.565Z,6.00
2023-01-21T11:04:19.350Z,6.00
2023-01-21T11:09:17.591Z,6.00
2023-01-21T11:14:17.792Z,5.90
2023-01-21T11:19:18.991Z,6.30
2023-01-21T11:24:24.362Z,6.40
2023-01-21T11:29:26.336Z,6.10
2023-01-21T11:34:25.087Z,6.30
2023-01-21T11:39:26.087Z,6.40
2023-01-21T11:44:26.420Z,6.60
2023-01-21T11:49:27.557Z,6.40
2023-01-21T11:54:26.503Z,6.40
2023-01-21T11:59:33.917Z,6.30
2023-01-21T12:04:34.415Z,6.70
2023-01-21T12:09:33.133Z,6.40
2023-01-21T12:20:12.539Z,6.70
2023-01-21T12:25:29.334Z,6.70
2023-01-21T12:30:41.777Z,6.70
2023-01-21T12:35:43.302Z,6.70
2023-01-21T12:40:47.897Z,6.60
2023-01-21T12:45:53.293Z,6.60
2023-01-21T12:50:56.826Z,6.70
2023-01-21T12:56:18.942Z,7.00
2023-01-21T13:01:37.028Z,6.70
2023-01-21T13:06:53.278Z,6.60
2023-01-21T13:11:57.957Z,6.70
2023-01-21T13:17:02.642Z,6.70
2023-01-21T13:22:09.620Z,7.10
2023-01-21T13:27:17.884Z,7.00
2023-01-21T13:32:29.598Z,6.60
2023-01-21T13:37:34.768Z,6.60
2023-01-21T13:42:40.544Z,6.60
2023-01-21T13:48:02.389Z,6.60
2023-01-21T13:53:17.585Z,6.50
2023-01-21T13:58:23.608Z,6.40
2023-01-21T14:03:31.234Z,6.80
2023-01-21T14:08:34.679Z,6.40
2023-01-21T14:14:12.203Z,6.40
2023-01-21T14:25:57.150Z,6.40
2023-01-21T14:31:02.974Z,6.80
2023-01-21T14:36:07.355Z,6.80
2023-01-21T14:41:09.496Z,6.40
2023-01-21T14:46:30.240Z,6.50
2023-01-21T14:51:31.837Z,6.40
2023-01-21T14:56:33.551Z,6.40
2023-01-21T15:01:38.803Z,6.60
2023-01-21T15:06:40.284Z,6.50
2023-01-21T15:11:42.419Z,6.40
2023-01-21T15:16:43.513Z,6.50
2023-01-21T15:21:46.403Z,6.50
2023-01-21T15:27:14.005Z,6.40
2023-01-21T15:32:30.482Z,6.20
2023-01-21T15:37:31.475Z,5.90
2023-01-21T15:42:42.234Z,5.70
2023-01-21T15:48:02.981Z,5.70
2023-01-21T15:53:43.084Z,5.80
2023-01-21T15:58:52.271Z,5.60
2023-01-21T16:04:08.572Z,5.60
2023-01-21T16:09:09.532Z,5.60
2023-01-21T16:14:21.277Z,5.60
2023-01-21T16:19:21.924Z,5.40
2023-01-21T16:24:25.092Z,5.30
2023-01-21T16:29:25.061Z,5.40
2023-01-21T16:34:39.902Z,5.50
2023-01-21T16:39:38.584Z,5.50
2023-01-21T16:44:38.747Z,5.50
2023-01-21T16:49:37.481Z,5.20
2023-01-21T16:54:36.077Z,5.20
2023-01-21T16:59:42.160Z,5.10
2023-01-21T17:04:40.367Z,5.20
2023-01-21T17:09:39.168Z,5.40
2023-01-21T17:14:40.215Z,5.10
2023-01-21T17:19:41.272Z,5.30
2023-01-21T17:24:44.266Z,5.20
2023-01-21T17:29:45.325Z,5.30
2023-01-21T17:34:44.316Z,5.30
2023-01-21T17:40:01.156Z,5.20
2023-01-21T17:45:04.825Z,5.10
2023-01-21T17:50:09.589Z,5.20
2023-01-21T17:55:25.970Z,5.10
2023-01-21T18:00:43.537Z,4.80
2023-01-21T18:05:43.555Z,4.90
2023-01-21T18:10:42.517Z,4.80
2023-01-21T18:15:43.369Z,4.90
2023-01-21T18:20:41.592Z,4.80
2023-01-21T18:25:40.985Z,4.80
2023-01-21T18:30:39.555Z,4.90
2023-01-21T18:35:39.817Z,5.10
2023-01-21T18:40:38.291Z,5.00
2023-01-21T18:45:36.875Z,5.00
2023-01-21T18:50:35.394Z,5.00
2023-01-21T18:55:35.647Z,5.20
2023-01-21T19:00:35.061Z,5.00
2023-01-21T19:05:38.455Z,4.70
2023-01-21T19:10:38.598Z,4.70
2023-01-21T19:15:37.355Z,4.70
2023-01-21T19:20:40.212Z,4.70
2023-01-21T19:25:39.747Z,4.90
2023-01-21T19:30:39.009Z,5.20
2023-01-21T19:35:39.799Z,4.80
2023-01-21T19:40:39.319Z,5.20
2023-01-21T19:45:37.811Z,4.90
2023-01-21T19:50:36.313Z,5.00
2023-01-21T19:55:37.270Z,4.90
2023-01-21T20:00:37.666Z,4.90
2023-01-21T20:05:35.947Z,5.00
2023-01-21T20:10:34.439Z,5.10
2023-01-21T20:15:35.460Z,5.20
2023-01-21T20:20:36.044Z,5.20
2023-01-21T20:25:38.167Z,5.10
2023-01-21T20:30:36.704Z,5.30
2023-01-21T20:35:36.648Z,5.30
2023-01-21T20:40:35.756Z,5.60
2023-01-21T20:45:44.709Z,5.20
2023-01-21T20:50:44.662Z,5.20
2023-01-21T20:55:44.898Z,5.10
2023-01-21T21:00:45.199Z,5.10
2023-01-21T21:05:45.825Z,5.00
2023-01-21T21:10:44.431Z,5.20
2023-01-21T21:15:46.406Z,5.40
2023-01-21T21:20:46.423Z,5.40
2023-01-21T21:25:45.934Z,5.50
2023-01-21T21:30:45.047Z,5.40
2023-01-21T21:35:44.641Z,5.10
2023-01-21T21:40:48.434Z,5.20
2023-01-21T21:46:00.801Z,5.20
2023-01-21T21:51:00.553Z,5.30
2023-01-21T21:56:04.355Z,4.90
2023-01-21T22:07:52.388Z,4.90
2023-01-21T22:12:52.250Z,4.80
2023-01-21T22:17:50.440Z,5.00
2023-01-21T22:22:48.903Z,4.80
2023-01-21T22:27:47.611Z,4.70
2023-01-21T22:32:47.467Z,4.60
2023-01-21T22:37:45.986Z,4.50
2023-01-21T22:42:44.467Z,4.80
2023-01-21T22:47:42.982Z,4.80
2023-01-21T22:52:42.841Z,4.80
2023-01-21T22:57:41.796Z,4.50
2023-01-21T23:02:40.261Z,4.70
2023-01-21T23:07:38.744Z,4.50
2023-01-21T23:12:38.640Z,4.90
2023-01-21T23:17:37.185Z,4.80
2023-01-21T23:22:36.274Z,4.20
2023-01-21T23:27:35.158Z,4.20
2023-01-21T23:32:34.719Z,4.10
2023-01-21T23:37:33.252Z,4.00
2023-01-21T23:42:31.723Z,4.30
2023-01-21T23:47:30.612Z,4.20
2023-01-21T23:52:30.468Z,4.30
2023-01-21T23:57:28.972Z,4.50
